Time;durP1;ratioP1;P1;durP2;ratioP2;P2;SDS_P1;SDS_P2;PMS_P1;PMS_P2;Temp;Humidity;BMP_temperature;BMP_pressure;BME280_temperature;BME280_humidity;BME280_pressure;Samples;Min_cycle;Max_cycle;Signal;HPM_P1;HPM_P2
2021/12/28 00:01:27;;;;;;;47.50;27.00;;;;;;;;;;5006133;28;20563;-84
2021/12/28 00:03:54;;;;;;;44.65;27.38;;;;;;;;;;5007349;28;20037;-83
2021/12/28 00:06:20;;;;;;;42.53;26.05;;;;;;;;;;5022684;28;20068;-83
2021/12/28 00:08:47;;;;;;;46.60;28.00;;;;;;;;;;5016235;28;20034;-83
2021/12/28 00:11:14;;;;;;;45.92;26.73;;;;;;;;;;5006207;28;20410;-83
2021/12/28 00:13:41;;;;;;;44.35;28.40;;;;;;;;;;5011305;28;20080;-83
2021/12/28 00:18:37;;;;;;;45.95;29.98;;;;;;;;;;5027049;28;20064;-82
2021/12/28 00:21:04;;;;;;;47.50;30.75;;;;;;;;;;5009534;28;20145;-83
2021/12/28 00:23:37;;;;;;;45.67;31.35;;;;;;;;;;5005293;28;20456;-83
2021/12/28 00:26:05;;;;;;;44.80;30.08;;;;;;;;;;5015498;28;20042;-83
2021/12/28 00:28:31;;;;;;;43.15;28.50;;;;;;;;;;5022392;28;20046;-82
2021/12/28 00:30:58;;;;;;;41.40;27.33;;;;;;;;;;5013289;28;20521;-81
2021/12/28 00:33:24;;;;;;;44.72;28.08;;;;;;;;;;5007293;28;20077;-83
2021/12/28 00:35:56;;;;;;;40.95;26.65;;;;;;;;;;5006733;28;20056;-84
2021/12/28 00:38:24;;;;;;;40.53;27.55;;;;;;;;;;5004907;28;20414;-83
2021/12/28 00:40:51;;;;;;;40.80;28.08;;;;;;;;;;5004434;28;20588;-83
2021/12/28 00:43:17;;;;;;;40.47;26.30;;;;;;;;;;5006456;28;20042;-85
2021/12/28 00:45:47;;;;;;;37.55;25.90;;;;;;;;;;5005818;28;20044;-83
2021/12/28 00:48:13;;;;;;;42.30;27.50;;;;;;;;;;5006482;28;20052;-83
2021/12/28 00:50:39;;;;;;;40.50;28.08;;;;;;;;;;5005250;28;20045;-83
2021/12/28 00:53:06;;;;;;;40.00;26.02;;;;;;;;;;5003390;28;20402;-83
2021/12/28 00:55:32;;;;;;;38.00;25.73;;;;;;;;;;5005789;28;20045;-83
2021/12/28 00:57:59;;;;;;;40.50;27.33;;;;;;;;;;5004743;28;20133;-83
2021/12/28 01:00:26;;;;;;;41.65;26.77;;;;;;;;;;5005627;28;20411;-83
2021/12/28 01:02:53;;;;;;;41.10;25.42;;;;;;;;;;4987594;28;20041;-83
2021/12/28 01:05:20;;;;;;;40.08;26.98;;;;;;;;;;5019290;28;20091;-82
2021/12/28 01:07:46;;;;;;;36.97;26.02;;;;;;;;;;5013753;28;20052;-83
2021/12/28 01:10:15;;;;;;;41.53;27.17;;;;;;;;;;5011776;28;20362;-83
2021/12/28 01:12:41;;;;;;;38.58;24.95;;;;;;;;;;5004141;28;20061;-83
2021/12/28 01:15:08;;;;;;;37.70;25.73;;;;;;;;;;5014452;28;20042;-83
2021/12/28 01:17:34;;;;;;;41.42;27.38;;;;;;;;;;5005378;28;20042;-84
2021/12/28 01:20:00;;;;;;;44.95;29.52;;;;;;;;;;5003404;28;20114;-84
2021/12/28 01:22:26;;;;;;;51.75;31.60;;;;;;;;;;5003075;28;20038;-84
2021/12/28 01:24:52;;;;;;;52.38;31.90;;;;;;;;;;5022899;28;20049;-83
2021/12/28 01:27:18;;;;;;;56.92;33.67;;;;;;;;;;5014195;28;20038;-84
2021/12/28 01:29:44;;;;;;;60.58;34.03;;;;;;;;;;5003822;28;20104;-83
2021/12/28 01:32:10;;;;;;;63.75;34.95;;;;;;;;;;4970821;28;20817;-84
2021/12/28 01:34:37;;;;;;;63.92;34.97;;;;;;;;;;4974047;28;20042;-84
2021/12/28 01:37:03;;;;;;;72.63;38.03;;;;;;;;;;4987084;28;20057;-85
2021/12/28 01:39:29;;;;;;;75.53;40.38;;;;;;;;;;4995330;28;20044;-85
2021/12/28 01:41:55;;;;;;;84.45;41.83;;;;;;;;;;4996809;28;20046;-86
2021/12/28 01:44:22;;;;;;;82.47;39.53;;;;;;;;;;4955427;28;20121;-85
2021/12/28 01:46:48;;;;;;;88.50;42.53;;;;;;;;;;5003899;28;20042;-85
2021/12/28 01:49:14;;;;;;;98.22;45.17;;;;;;;;;;4997471;28;20076;-85
2021/12/28 01:51:41;;;;;;;85.43;44.13;;;;;;;;;;4985533;28;20559;-85
2021/12/28 01:54:07;;;;;;;87.85;45.60;;;;;;;;;;4972644;28;20078;-84
2021/12/28 01:56:37;;;;;;;97.63;47.00;;;;;;;;;;4986480;28;20426;-85
2021/12/28 01:59:03;;;;;;;97.13;47.78;;;;;;;;;;4991504;28;20046;-85
2021/12/28 02:01:29;;;;;;;94.80;49.05;;;;;;;;;;4987747;28;20076;-85
2021/12/28 02:03:56;;;;;;;109.10;48.63;;;;;;;;;;4992459;28;20459;-85
2021/12/28 02:06:25;;;;;;;109.90;51.17;;;;;;;;;;4985440;28;20417;-84
2021/12/28 02:08:51;;;;;;;111.65;50.67;;;;;;;;;;4987061;28;20039;-84
2021/12/28 02:11:17;;;;;;;117.60;51.13;;;;;;;;;;4987698;28;20039;-84
2021/12/28 02:13:43;;;;;;;119.88;52.53;;;;;;;;;;5000546;28;20034;-84
2021/12/28 02:16:09;;;;;;;117.43;53.95;;;;;;;;;;4987194;28;20085;-83
2021/12/28 02:18:35;;;;;;;117.07;53.28;;;;;;;;;;4989880;28;20050;-85
2021/12/28 02:21:03;;;;;;;112.05;50.00;;;;;;;;;;4970541;28;20094;-83
2021/12/28 02:23:29;;;;;;;118.78;53.03;;;;;;;;;;4988818;28;20070;-84
2021/12/28 02:25:55;;;;;;;122.45;53.33;;;;;;;;;;5001481;28;20749;-85
2021/12/28 02:28:21;;;;;;;121.88;53.10;;;;;;;;;;4959197;28;20407;-84
2021/12/28 02:30:49;;;;;;;128.43;56.53;;;;;;;;;;5000113;28;20128;-84
2021/12/28 02:33:16;;;;;;;143.23;57.10;;;;;;;;;;5007501;28;20525;-84
2021/12/28 02:35:42;;;;;;;136.60;56.42;;;;;;;;;;4990937;28;20065;-84
2021/12/28 02:38:10;;;;;;;145.63;59.03;;;;;;;;;;5006542;28;20042;-84
2021/12/28 02:40:38;;;;;;;139.18;56.97;;;;;;;;;;5006693;28;20056;-84
2021/12/28 02:43:05;;;;;;;166.73;61.65;;;;;;;;;;5005571;28;20520;-84
2021/12/28 02:45:33;;;;;;;166.10;61.13;;;;;;;;;;5006929;28;20045;-84
2021/12/28 02:47:59;;;;;;;165.23;61.42;;;;;;;;;;5007408;28;20506;-83
2021/12/28 02:50:39;;;;;;;182.32;64.38;;;;;;;;;;5016286;28;20561;-84
2021/12/28 02:53:06;;;;;;;195.48;63.60;;;;;;;;;;5010539;28;20521;-84
2021/12/28 02:55:33;;;;;;;203.70;65.78;;;;;;;;;;5013309;28;20124;-83
2021/12/28 02:58:01;;;;;;;206.48;64.57;;;;;;;;;;5013938;28;20106;-84
2021/12/28 03:00:44;;;;;;;223.07;67.38;;;;;;;;;;5021833;28;20037;-85
2021/12/28 03:03:15;;;;;;;222.00;65.63;;;;;;;;;;5006662;28;20105;-85
2021/12/28 03:05:42;;;;;;;215.73;65.75;;;;;;;;;;5006746;28;20037;-83
2021/12/28 03:08:08;;;;;;;244.10;69.70;;;;;;;;;;5013141;28;20459;-85
2021/12/28 03:10:34;;;;;;;269.75;72.68;;;;;;;;;;5006492;28;20882;-85
2021/12/28 03:13:01;;;;;;;278.38;72.97;;;;;;;;;;5007060;28;20034;-84
2021/12/28 03:15:27;;;;;;;314.67;75.78;;;;;;;;;;5005469;28;20034;-83
2021/12/28 03:17:53;;;;;;;311.73;75.90;;;;;;;;;;5019570;28;20500;-84
2021/12/28 03:20:19;;;;;;;289.23;74.45;;;;;;;;;;5003452;28;20119;-84
2021/12/28 03:22:45;;;;;;;325.73;74.35;;;;;;;;;;5008122;28;20049;-84
2021/12/28 03:25:12;;;;;;;301.15;70.20;;;;;;;;;;5006062;28;20077;-84
2021/12/28 03:27:38;;;;;;;323.17;74.95;;;;;;;;;;4991764;28;20414;-85
2021/12/28 03:30:09;;;;;;;336.13;71.45;;;;;;;;;;5019023;28;20054;-84
2021/12/28 03:32:35;;;;;;;325.02;76.65;;;;;;;;;;5008523;28;20088;-85
2021/12/28 03:35:03;;;;;;;362.02;75.70;;;;;;;;;;4999400;28;20387;-84
2021/12/28 03:37:30;;;;;;;327.27;74.45;;;;;;;;;;5000398;28;20049;-84
2021/12/28 03:39:56;;;;;;;304.13;69.78;;;;;;;;;;5007829;28;20046;-85
2021/12/28 03:42:22;;;;;;;343.10;77.25;;;;;;;;;;5005769;28;20053;-84
2021/12/28 03:44:48;;;;;;;358.77;75.80;;;;;;;;;;5000216;28;20176;-84
2021/12/28 03:47:14;;;;;;;310.65;72.55;;;;;;;;;;5017394;28;20596;-84
2021/12/28 03:49:40;;;;;;;293.13;71.25;;;;;;;;;;5024532;28;20038;-84
2021/12/28 03:52:07;;;;;;;321.85;73.65;;;;;;;;;;5024925;28;20049;-85
2021/12/28 03:54:33;;;;;;;317.00;74.35;;;;;;;;;;5005128;28;20049;-85
2021/12/28 03:56:59;;;;;;;336.30;75.65;;;;;;;;;;5005998;28;20839;-84
2021/12/28 03:59:25;;;;;;;359.73;77.53;;;;;;;;;;5005772;28;21069;-85
2021/12/28 04:01:51;;;;;;;355.75;79.93;;;;;;;;;;5005038;28;20565;-85
2021/12/28 04:04:18;;;;;;;333.23;78.05;;;;;;;;;;5005746;28;20537;-84
2021/12/28 04:06:44;;;;;;;339.08;76.88;;;;;;;;;;5006379;28;20038;-84
2021/12/28 04:09:12;;;;;;;310.65;73.00;;;;;;;;;;5005553;28;20049;-84
2021/12/28 04:11:38;;;;;;;346.65;74.40;;;;;;;;;;5005926;28;20153;-83
2021/12/28 04:14:06;;;;;;;382.90;79.53;;;;;;;;;;5010599;28;20042;-85
2021/12/28 04:16:32;;;;;;;351.77;75.57;;;;;;;;;;5006000;28;20052;-84
2021/12/28 04:18:59;;;;;;;289.10;69.68;;;;;;;;;;5022251;28;20053;-84
2021/12/28 04:21:25;;;;;;;329.85;72.22;;;;;;;;;;5024390;28;20080;-84
2021/12/28 04:23:51;;;;;;;352.85;75.97;;;;;;;;;;5021617;28;20049;-85
2021/12/28 04:26:19;;;;;;;332.42;76.00;;;;;;;;;;5017642;28;20133;-86
2021/12/28 04:28:45;;;;;;;328.77;76.25;;;;;;;;;;5007816;28;20053;-84
2021/12/28 04:31:11;;;;;;;359.15;78.10;;;;;;;;;;4995332;28;20486;-84
2021/12/28 04:33:38;;;;;;;375.73;78.45;;;;;;;;;;4985762;28;20505;-86
2021/12/28 04:36:15;;;;;;;367.65;78.95;;;;;;;;;;4968528;28;20046;-86
2021/12/28 04:38:43;;;;;;;326.77;75.75;;;;;;;;;;4968326;28;20129;-85
2021/12/28 04:41:10;;;;;;;317.73;74.78;;;;;;;;;;4969741;28;20043;-86
2021/12/28 04:43:36;;;;;;;319.75;73.60;;;;;;;;;;4968686;28;20052;-85
2021/12/28 04:46:02;;;;;;;388.25;80.20;;;;;;;;;;4985101;28;20056;-85
2021/12/28 04:48:28;;;;;;;352.55;77.60;;;;;;;;;;4967053;28;20042;-85
2021/12/28 04:50:54;;;;;;;364.08;77.22;;;;;;;;;;4967284;28;20808;-84
2021/12/28 04:53:20;;;;;;;377.08;76.53;;;;;;;;;;4986162;28;20468;-85
2021/12/28 04:55:48;;;;;;;436.83;81.28;;;;;;;;;;4985541;28;20169;-84
2021/12/28 04:58:14;;;;;;;477.17;82.88;;;;;;;;;;4954047;28;20054;-84
2021/12/28 05:00:41;;;;;;;501.85;84.88;;;;;;;;;;4968329;28;20456;-84
2021/12/28 05:03:07;;;;;;;479.95;79.60;;;;;;;;;;4986107;28;20042;-83
2021/12/28 05:05:33;;;;;;;489.95;83.00;;;;;;;;;;4967110;28;20039;-85
2021/12/28 05:07:59;;;;;;;494.58;82.20;;;;;;;;;;4982147;28;20034;-84
2021/12/28 05:10:25;;;;;;;451.63;84.55;;;;;;;;;;4966766;28;20091;-85
2021/12/28 05:12:52;;;;;;;485.10;87.15;;;;;;;;;;4966240;28;20082;-85
2021/12/28 05:15:18;;;;;;;526.90;85.57;;;;;;;;;;4983372;28;20038;-84
2021/12/28 05:17:45;;;;;;;577.95;89.95;;;;;;;;;;4967201;28;20053;-84
2021/12/28 05:20:11;;;;;;;560.70;87.93;;;;;;;;;;4984465;28;20426;-86
2021/12/28 05:22:37;;;;;;;560.33;86.53;;;;;;;;;;4985490;28;20270;-83
2021/12/28 05:25:04;;;;;;;523.35;84.60;;;;;;;;;;4993513;28;20046;-83
2021/12/28 05:27:30;;;;;;;536.63;83.13;;;;;;;;;;4993094;28;20052;-84
2021/12/28 05:29:56;;;;;;;636.13;86.75;;;;;;;;;;4993917;28;20030;-84
2021/12/28 05:32:22;;;;;;;657.85;88.75;;;;;;;;;;4985409;28;20066;-84
2021/12/28 05:34:48;;;;;;;640.65;78.25;;;;;;;;;;4985560;28;20169;-84
2021/12/28 05:37:14;;;;;;;630.17;83.10;;;;;;;;;;4999861;28;20090;-83
2021/12/28 05:39:40;;;;;;;614.17;84.70;;;;;;;;;;4984524;28;20047;-84
2021/12/28 05:42:06;;;;;;;557.28;80.88;;;;;;;;;;4967083;28;20053;-84
2021/12/28 05:44:33;;;;;;;549.50;81.47;;;;;;;;;;4970417;28;20062;-84
2021/12/28 05:46:59;;;;;;;528.22;76.25;;;;;;;;;;4988545;28;20982;-84
2021/12/28 05:49:25;;;;;;;482.92;78.95;;;;;;;;;;4986915;28;20042;-84
2021/12/28 05:51:51;;;;;;;430.10;75.93;;;;;;;;;;5003384;28;20048;-84
2021/12/28 05:54:18;;;;;;;451.50;74.75;;;;;;;;;;4969603;28;20078;-84
2021/12/28 05:56:44;;;;;;;412.90;73.13;;;;;;;;;;4972221;28;20438;-84
2021/12/28 05:59:10;;;;;;;407.55;72.28;;;;;;;;;;4956429;28;20042;-85
2021/12/28 06:01:37;;;;;;;453.33;75.10;;;;;;;;;;4995830;28;20069;-85
2021/12/28 06:04:03;;;;;;;363.88;66.78;;;;;;;;;;4986487;28;20042;-84
2021/12/28 06:06:29;;;;;;;402.13;71.03;;;;;;;;;;4990856;28;20045;-85
2021/12/28 06:08:55;;;;;;;419.13;71.80;;;;;;;;;;4981483;28;20046;-83
2021/12/28 06:11:22;;;;;;;390.05;68.85;;;;;;;;;;4983899;28;20050;-84
2021/12/28 06:13:48;;;;;;;339.80;67.75;;;;;;;;;;4987185;28;20042;-84
2021/12/28 06:16:15;;;;;;;355.35;66.57;;;;;;;;;;4988891;28;20042;-84
2021/12/28 06:18:41;;;;;;;299.13;64.45;;;;;;;;;;4987770;28;20511;-84
2021/12/28 06:21:07;;;;;;;304.70;64.68;;;;;;;;;;4988690;28;20038;-84
2021/12/28 06:23:33;;;;;;;327.85;64.20;;;;;;;;;;4980347;28;20136;-84
2021/12/28 06:25:59;;;;;;;273.77;59.40;;;;;;;;;;4983768;28;20170;-84
2021/12/28 06:28:25;;;;;;;247.27;59.30;;;;;;;;;;4986158;28;20050;-84
2021/12/28 06:30:53;;;;;;;235.13;56.75;;;;;;;;;;4985635;28;20056;-84
2021/12/28 06:33:20;;;;;;;208.48;56.45;;;;;;;;;;4985724;28;20050;-84
2021/12/28 06:35:46;;;;;;;220.02;58.05;;;;;;;;;;4970770;28;20105;-83
2021/12/28 06:38:12;;;;;;;202.55;54.50;;;;;;;;;;4984739;28;20050;-83
2021/12/28 06:40:38;;;;;;;188.25;54.38;;;;;;;;;;4982420;28;20058;-84
2021/12/28 06:43:04;;;;;;;184.40;54.40;;;;;;;;;;4984667;28;20041;-84
2021/12/28 06:45:30;;;;;;;196.63;52.67;;;;;;;;;;4968181;28;20042;-84
2021/12/28 06:47:56;;;;;;;187.52;54.13;;;;;;;;;;4985094;28;20387;-84
2021/12/28 06:50:22;;;;;;;175.20;49.88;;;;;;;;;;4985810;28;20053;-84
2021/12/28 06:52:48;;;;;;;178.90;52.53;;;;;;;;;;4981788;28;20041;-84
2021/12/28 06:55:14;;;;;;;155.82;52.55;;;;;;;;;;4968196;28;20046;-84
2021/12/28 06:57:40;;;;;;;151.77;49.95;;;;;;;;;;4984797;28;20038;-84
2021/12/28 07:00:09;;;;;;;152.32;49.60;;;;;;;;;;4968252;28;20057;-84
2021/12/28 07:02:35;;;;;;;158.60;49.15;;;;;;;;;;4984718;28;20081;-83
2021/12/28 07:05:01;;;;;;;157.18;48.83;;;;;;;;;;4968018;28;20041;-84
2021/12/28 07:07:27;;;;;;;145.93;50.20;;;;;;;;;;4984277;28;20046;-84
2021/12/28 07:09:53;;;;;;;148.00;51.03;;;;;;;;;;4984930;28;20038;-83
2021/12/28 07:12:19;;;;;;;144.80;45.30;;;;;;;;;;4968094;28;20125;-83
2021/12/28 07:14:45;;;;;;;129.40;47.15;;;;;;;;;;4984822;28;20109;-83
2021/12/28 07:17:11;;;;;;;137.50;48.85;;;;;;;;;;4985584;28;20042;-83
2021/12/28 07:19:37;;;;;;;129.27;46.15;;;;;;;;;;4984641;28;20997;-83
2021/12/28 07:22:04;;;;;;;120.13;44.25;;;;;;;;;;4984981;28;20043;-84
2021/12/28 07:24:30;;;;;;;120.90;44.30;;;;;;;;;;4984895;28;20097;-84
2021/12/28 07:26:57;;;;;;;133.68;46.65;;;;;;;;;;4985388;28;20064;-84
2021/12/28 07:29:23;;;;;;;132.18;46.80;;;;;;;;;;4982596;28;20051;-83
2021/12/28 07:31:49;;;;;;;113.60;45.15;;;;;;;;;;4970454;28;20050;-84
2021/12/28 07:34:15;;;;;;;115.85;43.58;;;;;;;;;;4999791;28;20132;-84
2021/12/28 07:36:41;;;;;;;126.53;44.00;;;;;;;;;;4985768;28;20050;-84
2021/12/28 07:39:08;;;;;;;115.60;44.72;;;;;;;;;;4981531;28;20052;-84
2021/12/28 07:41:34;;;;;;;117.35;45.45;;;;;;;;;;4965424;28;20038;-84
2021/12/28 07:44:04;;;;;;;110.72;43.00;;;;;;;;;;4994243;28;20498;-83
2021/12/28 07:46:30;;;;;;;102.65;41.03;;;;;;;;;;4968753;28;20196;-84
2021/12/28 07:48:56;;;;;;;97.82;41.88;;;;;;;;;;4992484;28;20144;-84
2021/12/28 07:51:22;;;;;;;97.35;39.97;;;;;;;;;;4998061;28;20045;-83
2021/12/28 07:53:48;;;;;;;82.88;38.72;;;;;;;;;;4992773;28;20050;-84
2021/12/28 07:56:14;;;;;;;97.13;37.17;;;;;;;;;;4984485;28;20026;-84
2021/12/28 07:58:40;;;;;;;83.20;36.28;;;;;;;;;;4974840;28;20054;-84
2021/12/28 08:01:06;;;;;;;91.07;38.10;;;;;;;;;;4986983;28;20049;-84
2021/12/28 08:03:32;;;;;;;78.30;35.83;;;;;;;;;;4992897;28;20048;-84
2021/12/28 08:05:58;;;;;;;86.55;36.53;;;;;;;;;;4982069;28;20084;-84
2021/12/28 08:08:24;;;;;;;77.68;34.50;;;;;;;;;;4991058;28;20042;-84
2021/12/28 08:10:51;;;;;;;75.57;33.00;;;;;;;;;;4994295;28;20042;-84
2021/12/28 08:13:17;;;;;;;69.05;33.15;;;;;;;;;;4972026;28;20088;-84
2021/12/28 08:15:44;;;;;;;76.40;32.58;;;;;;;;;;4989324;28;20042;-83
2021/12/28 08:18:10;;;;;;;69.07;32.03;;;;;;;;;;4987548;28;20101;-84
2021/12/28 08:20:40;;;;;;;66.50;30.20;;;;;;;;;;4976090;28;20092;-84
2021/12/28 08:23:06;;;;;;;71.75;30.40;;;;;;;;;;4993168;28;20051;-84
2021/12/28 08:25:32;;;;;;;63.38;29.08;;;;;;;;;;4967253;28;20774;-83
2021/12/28 08:28:01;;;;;;;60.88;30.02;;;;;;;;;;4976898;28;20236;-84
2021/12/28 08:30:27;;;;;;;59.25;27.17;;;;;;;;;;4981328;28;20130;-84
2021/12/28 08:32:53;;;;;;;57.42;28.30;;;;;;;;;;5003858;28;20058;-84
2021/12/28 08:35:19;;;;;;;55.38;26.42;;;;;;;;;;5018139;28;20128;-84
2021/12/28 08:37:45;;;;;;;51.70;24.45;;;;;;;;;;4987658;28;20073;-84
2021/12/28 08:40:13;;;;;;;51.33;24.40;;;;;;;;;;5009067;28;20053;-84
2021/12/28 08:42:39;;;;;;;51.40;25.00;;;;;;;;;;5013668;28;20108;-83
2021/12/28 08:45:06;;;;;;;47.10;24.98;;;;;;;;;;5006713;28;20041;-83
2021/12/28 08:47:33;;;;;;;48.80;21.50;;;;;;;;;;5014415;28;20050;-83
2021/12/28 08:50:00;;;;;;;53.28;23.08;;;;;;;;;;5011997;28;20043;-83
2021/12/28 08:52:26;;;;;;;45.00;21.83;;;;;;;;;;5006719;28;20502;-83
2021/12/28 08:54:52;;;;;;;39.25;20.75;;;;;;;;;;5013260;28;20049;-83
2021/12/28 08:57:19;;;;;;;42.78;20.20;;;;;;;;;;5008008;28;20038;-83
2021/12/28 08:59:46;;;;;;;43.70;19.75;;;;;;;;;;5000829;28;20034;-84
2021/12/28 09:02:12;;;;;;;45.38;19.77;;;;;;;;;;5005321;28;20533;-84
2021/12/28 09:04:43;;;;;;;40.85;19.27;;;;;;;;;;5016585;28;20045;-84
2021/12/28 09:07:09;;;;;;;41.38;18.27;;;;;;;;;;5015146;28;20597;-84
2021/12/28 09:09:35;;;;;;;39.15;18.75;;;;;;;;;;5004763;28;20049;-84
2021/12/28 09:12:01;;;;;;;41.65;17.92;;;;;;;;;;5010000;28;20062;-83
2021/12/28 09:14:27;;;;;;;38.30;16.35;;;;;;;;;;5007870;28;20087;-83
2021/12/28 09:16:53;;;;;;;35.97;16.33;;;;;;;;;;5003572;28;20092;-83
2021/12/28 09:19:19;;;;;;;35.85;17.60;;;;;;;;;;5008478;28;20049;-83
2021/12/28 09:21:45;;;;;;;33.13;16.33;;;;;;;;;;5004430;28;20060;-83
2021/12/28 09:24:11;;;;;;;35.75;15.73;;;;;;;;;;5006566;28;20057;-83
2021/12/28 09:26:38;;;;;;;29.88;14.93;;;;;;;;;;5007188;28;20100;-83
2021/12/28 09:29:04;;;;;;;35.22;14.38;;;;;;;;;;5007260;28;20120;-83
2021/12/28 09:31:30;;;;;;;34.17;13.35;;;;;;;;;;5012423;28;20072;-83
2021/12/28 09:33:56;;;;;;;42.72;14.82;;;;;;;;;;5004973;28;20433;-82
2021/12/28 09:36:22;;;;;;;33.83;14.02;;;;;;;;;;5009665;28;20076;-83
2021/12/28 09:38:48;;;;;;;40.15;15.40;;;;;;;;;;5008276;28;20053;-81
2021/12/28 09:41:15;;;;;;;42.15;15.63;;;;;;;;;;5011191;28;21537;-82
2021/12/28 09:43:41;;;;;;;41.88;18.10;;;;;;;;;;5006762;28;20042;-81
2021/12/28 09:46:07;;;;;;;29.27;12.63;;;;;;;;;;5018365;28;20041;-83
2021/12/28 09:48:34;;;;;;;31.50;12.13;;;;;;;;;;5009552;28;20545;-84
2021/12/28 09:51:00;;;;;;;28.88;11.77;;;;;;;;;;5005337;28;20077;-82
2021/12/28 09:53:27;;;;;;;30.33;11.48;;;;;;;;;;5003986;28;20046;-81
2021/12/28 09:55:53;;;;;;;27.42;12.15;;;;;;;;;;4995847;28;20041;-84
2021/12/28 09:58:20;;;;;;;30.00;10.65;;;;;;;;;;5006072;28;20087;-83
2021/12/28 10:00:46;;;;;;;31.42;11.38;;;;;;;;;;5009161;28;20125;-83
2021/12/28 10:03:12;;;;;;;34.05;11.73;;;;;;;;;;5022098;28;20182;-83
2021/12/28 10:05:38;;;;;;;39.55;15.60;;;;;;;;;;5021160;28;20072;-84
2021/12/28 10:08:05;;;;;;;29.38;10.35;;;;;;;;;;4995128;28;20034;-83
2021/12/28 10:10:33;;;;;;;27.13;9.65;;;;;;;;;;5010305;28;20523;-86
2021/12/28 10:13:01;;;;;;;27.15;9.15;;;;;;;;;;5007973;28;20050;-84
2021/12/28 10:15:29;;;;;;;20.67;9.35;;;;;;;;;;5011416;28;20401;-85
2021/12/28 10:17:57;;;;;;;34.25;10.73;;;;;;;;;;5020315;28;20566;-84
2021/12/28 10:20:26;;;;;;;23.77;10.32;;;;;;;;;;5011435;28;20049;-83
2021/12/28 10:22:54;;;;;;;28.08;12.82;;;;;;;;;;5004918;28;20061;-85
2021/12/28 10:25:23;;;;;;;27.88;10.32;;;;;;;;;;5006104;28;20482;-83
2021/12/28 10:27:54;;;;;;;30.17;12.07;;;;;;;;;;5011480;28;20049;-83
2021/12/28 10:30:25;;;;;;;29.48;10.43;;;;;;;;;;5008753;28;20041;-83
2021/12/28 10:32:52;;;;;;;27.67;12.45;;;;;;;;;;5012554;28;20565;-83
2021/12/28 10:35:20;;;;;;;31.42;11.18;;;;;;;;;;5006419;28;20049;-84
2021/12/28 10:37:47;;;;;;;28.50;10.18;;;;;;;;;;5018153;28;20045;-83
2021/12/28 10:40:15;;;;;;;28.02;9.80;;;;;;;;;;5022315;28;20107;-84
2021/12/28 10:42:43;;;;;;;27.95;9.63;;;;;;;;;;5013542;28;20073;-83
2021/12/28 10:45:12;;;;;;;21.67;8.32;;;;;;;;;;5008572;28;20116;-84
2021/12/28 10:47:38;;;;;;;25.95;8.75;;;;;;;;;;5013129;28;20165;-83
2021/12/28 10:50:25;;;;;;;28.10;8.90;;;;;;;;;;5015811;28;20382;-83
2021/12/28 10:52:59;;;;;;;31.65;9.52;;;;;;;;;;5018692;28;20161;-84
2021/12/28 10:55:27;;;;;;;21.73;9.23;;;;;;;;;;5022859;28;20084;-84
2021/12/28 10:57:53;;;;;;;25.30;8.63;;;;;;;;;;5020300;28;20068;-84
2021/12/28 11:00:30;;;;;;;26.30;8.68;;;;;;;;;;5022438;28;20059;-84
2021/12/28 11:03:15;;;;;;;25.15;7.90;;;;;;;;;;5014095;28;20049;-83
2021/12/28 11:05:43;;;;;;;26.15;9.05;;;;;;;;;;5009824;28;20049;-83
2021/12/28 11:08:09;;;;;;;28.90;9.88;;;;;;;;;;5015147;28;20132;-83
2021/12/28 11:10:40;;;;;;;27.45;8.93;;;;;;;;;;5025085;28;20042;-83
2021/12/28 11:13:06;;;;;;;25.95;10.55;;;;;;;;;;5011003;28;20050;-84
2021/12/28 11:15:37;;;;;;;26.60;9.98;;;;;;;;;;4983352;28;20237;-84
2021/12/28 11:18:22;;;;;;;29.23;12.43;;;;;;;;;;5013697;28;20054;-84
2021/12/28 11:20:49;;;;;;;30.83;9.98;;;;;;;;;;5006568;28;20041;-84
2021/12/28 11:23:26;;;;;;;37.75;10.60;;;;;;;;;;5007869;28;20125;-86
2021/12/28 11:26:11;;;;;;;34.75;12.73;;;;;;;;;;5015384;28;20037;-85
2021/12/28 11:28:38;;;;;;;27.42;9.63;;;;;;;;;;4996769;28;20091;-85
2021/12/28 11:31:09;;;;;;;30.58;10.68;;;;;;;;;;5007893;28;20512;-83
2021/12/28 11:34:03;;;;;;;28.52;12.30;;;;;;;;;;5011468;28;20050;-84
2021/12/28 11:36:37;;;;;;;31.60;12.35;;;;;;;;;;5006617;28;20486;-84
2021/12/28 11:39:03;;;;;;;;;;;;;;;;;;5016613;28;20073;-84
2021/12/28 11:41:29;;;;;;;36.28;13.35;;;;;;;;;;5007856;28;20292;-83
2021/12/28 11:43:56;;;;;;;32.80;16.48;;;;;;;;;;5016754;28;20045;-83
2021/12/28 11:46:26;;;;;;;44.97;24.63;;;;;;;;;;5012462;28;20485;-84
2021/12/28 11:48:52;;;;;;;52.42;29.58;;;;;;;;;;5016462;28;20069;-85
2021/12/28 11:51:20;;;;;;;59.13;31.40;;;;;;;;;;5018946;28;20048;-85
2021/12/28 11:53:46;;;;;;;51.97;31.30;;;;;;;;;;5011238;28;20116;-85
2021/12/28 11:56:14;;;;;;;49.65;25.70;;;;;;;;;;5005054;28;20486;-85
2021/12/28 11:58:49;;;;;;;63.42;36.20;;;;;;;;;;5019260;28;20048;-85
2021/12/28 12:01:34;;;;;;;51.25;30.75;;;;;;;;;;5012069;28;20053;-86
2021/12/28 12:04:00;;;;;;;41.22;19.42;;;;;;;;;;5009281;28;20196;-85
2021/12/28 12:06:45;;;;;;;50.80;24.27;;;;;;;;;;4982365;28;20103;-85
2021/12/28 12:09:11;;;;;;;48.90;23.20;;;;;;;;;;5013435;28;20050;-86
2021/12/28 12:11:57;;;;;;;53.15;26.58;;;;;;;;;;4992881;28;20088;-86
2021/12/28 12:14:43;;;;;;;47.95;20.80;;;;;;;;;;5011038;28;20077;-86
2021/12/28 12:17:24;;;;;;;60.95;30.35;;;;;;;;;;5009820;28;20160;-86
2021/12/28 12:19:51;;;;;;;53.65;26.27;;;;;;;;;;5007882;28;20061;-86
2021/12/28 12:22:32;;;;;;;41.25;23.77;;;;;;;;;;5007164;28;20251;-86
2021/12/28 12:25:00;;;;;;;44.80;24.65;;;;;;;;;;5010897;28;20097;-86
2021/12/28 12:27:45;;;;;;;53.72;32.35;;;;;;;;;;5004880;28;20081;-85
2021/12/28 12:30:18;;;;;;;43.90;26.25;;;;;;;;;;5007550;28;20030;-85
2021/12/28 12:33:10;;;;;;;40.80;20.92;;;7.40;99.90;;;;;;4989555;28;20050;-85
2021/12/28 12:35:36;;;;;;;41.33;24.73;;;;;;;;;;5007373;28;20155;-85
2021/12/28 12:38:24;;;;;;;48.90;25.35;;;;;;;;;;5007809;28;20053;-84
2021/12/28 12:40:59;;;;;;;41.47;22.05;;;;;;;;;;5002153;28;20054;-85
2021/12/28 12:43:38;;;;;;;40.28;22.08;;;;;;;;;;5007176;28;20489;-85
2021/12/28 12:46:18;;;;;;;43.20;20.77;;;;;;;;;;5005536;28;21723;-85
2021/12/28 12:48:44;;;;;;;51.03;20.50;;;;;;;;;;5005424;28;20520;-85
2021/12/28 12:51:22;;;;;;;51.33;21.27;;;;;;;;;;5007996;28;20045;-85
2021/12/28 12:54:00;;;;;;;40.97;20.48;;;;;;;;;;5005152;28;20045;-85
2021/12/28 12:56:36;;;;;;;52.38;24.30;;;;;;;;;;5003685;28;20041;-86
2021/12/28 12:59:20;;;;;;;41.38;24.02;;;;;;;;;;5004967;28;20053;-84
2021/12/28 13:01:49;;;;;;;39.42;23.00;;;;;;;;;;5017755;28;20054;-86
2021/12/28 13:04:43;;;;;;;42.38;26.05;;;;;;;;;;5015790;28;20053;-86
2021/12/28 13:07:18;;;;;;;38.97;22.73;;;;;;;;;;5016840;28;20092;-85
2021/12/28 13:09:46;;;;;;;48.78;27.67;;;;;;;;;;5007748;28;20069;-85
2021/12/28 13:12:15;;;;;;;40.88;22.00;;;;;;;;;;4988748;28;20034;-86
2021/12/28 13:14:41;;;;;;;43.25;21.85;;;;;;;;;;5006139;28;20569;-86
2021/12/28 13:17:14;;;;;;;50.53;25.00;;;;;;;;;;5005466;28;20064;-86
2021/12/28 13:20:00;;;;;;;38.40;20.77;;;;;;;;;;5010778;28;20137;-85
2021/12/28 13:22:26;;;;;;;38.15;22.67;;;;;;;;;;4993386;28;20042;-85
2021/12/28 13:24:55;;;;;;;29.98;20.45;;;;;;;;;;5011580;28;20038;-87
2021/12/28 13:27:30;;;;;;;32.95;23.17;;;;;;;;;;5012645;28;20813;-85
2021/12/28 13:30:00;;;;;;;42.03;25.63;;;;;;;;;;4990030;28;20038;-85
2021/12/28 13:32:26;;;;;;;38.53;25.15;;;;;;;;;;5002508;28;20057;-86
2021/12/28 13:35:04;;;;;;;42.17;27.60;;;;;;;;;;4985902;28;20057;-86
2021/12/28 13:37:30;;;;;;;41.42;24.02;;;;;;;;;;4988139;28;20092;-85
2021/12/28 13:40:01;;;;;;;40.65;23.27;;;;;;;;;;5005739;28;20050;-85
2021/12/28 13:42:27;;;;;;;44.13;26.70;;;;;;;;;;4987393;28;20049;-85
2021/12/28 13:44:53;;;;;;;49.83;29.88;;;;;;;;;;4959512;28;20082;-86
2021/12/28 13:47:21;;;;;;;40.75;25.88;;;;;;;;;;4967953;28;20054;-85
2021/12/28 13:50:19;;;;;;;35.50;24.73;;;;;;;;;;4985234;28;20063;-85
2021/12/28 13:52:50;;;;;;;47.83;28.83;;;;;;;;;;4952481;28;20586;-85
2021/12/28 13:55:17;;;;;;;45.85;26.08;;;;;;;;;;4966791;28;20096;-86
2021/12/28 13:57:43;;;;;;;39.90;25.23;;;;;;;;;;4967851;28;20090;-85
2021/12/28 14:00:12;;;;;;;36.90;24.80;;;;;;;;;;4980456;28;20177;-84
2021/12/28 14:02:40;;;;;;;38.75;26.95;;;;;;;;;;4967847;28;20042;-84
2021/12/28 14:05:06;;;;;;;38.33;24.45;;;;;;;;;;4954787;28;20049;-84
2021/12/28 14:07:33;;;;;;;40.50;24.85;;;;;;;;;;4954189;28;20201;-85
2021/12/28 14:09:59;;;;;;;44.53;25.15;;;;;;;;;;4970472;28;20135;-85
2021/12/28 14:12:25;;;;;;;41.70;25.58;;;;;;;;;;4969329;28;20741;-85
2021/12/28 14:14:52;;;;;;;41.60;26.08;;;;;;;;;;4987811;28;20133;-86
2021/12/28 14:17:19;;;;;;;40.00;27.13;;;;;;;;;;4987877;28;20092;-85
2021/12/28 14:19:53;;;;;;;48.35;27.92;;;;;;;;;;4986195;28;20050;-85
2021/12/28 14:22:20;;;;;;;41.35;23.30;;;;;;;;;;4986087;28;20049;-84